Time;durP1;ratioP1;P1;durP2;ratioP2;P2;SDS_P1;SDS_P2;PMS_P1;PMS_P2;Temp;Humidity;BMP_temperature;BMP_pressure;BME280_temperature;BME280_humidity;BME280_pressure;Samples;Min_cycle;Max_cycle;Signal;HPM_P1;HPM_P2
2021/08/03 00:00:17;;;;;;;2.95;1.60;;;21.10;66.30;;;;;;10432929;28;20091;-46
2021/08/03 00:05:23;;;;;;;1.90;1.52;;;21.00;66.30;;;;;;10456923;28;20538;-46
2021/08/03 00:10:24;;;;;;;2.78;1.30;;;21.00;66.10;;;;;;10440503;28;20040;-49
2021/08/03 00:15:25;;;;;;;1.92;1.10;;;21.10;66.10;;;;;;10457580;28;20029;-46
2021/08/03 00:20:26;;;;;;;2.20;1.40;;;21.00;66.10;;;;;;10450779;28;20049;-48
2021/08/03 00:25:29;;;;;;;2.08;1.35;;;21.00;65.90;;;;;;10443429;28;20043;-46
2021/08/03 00:30:32;;;;;;;2.28;1.35;;;21.00;65.80;;;;;;10457229;28;20032;-48
2021/08/03 00:35:33;;;;;;;1.38;1.10;;;21.00;65.80;;;;;;10456420;28;20032;-45
2021/08/03 00:40:50;;;;;;;2.20;1.33;;;21.00;65.80;;;;;;10456637;28;20111;-47
2021/08/03 00:45:51;;;;;;;3.97;1.38;;;21.00;65.80;;;;;;10455362;28;20421;-46
2021/08/03 00:50:52;;;;;;;2.63;1.20;;;21.00;65.90;;;;;;10456163;28;20032;-51
2021/08/03 00:55:53;;;;;;;1.83;1.25;;;21.00;66.10;;;;;;10456018;28;20029;-47
2021/08/03 01:00:55;;;;;;;1.40;0.98;;;21.00;65.90;;;;;;10448109;28;20375;-48
2021/08/03 01:06:30;;;;;;;4.00;1.55;;;21.00;65.80;;;;;;10455553;28;20028;-46
2021/08/03 01:11:40;;;;;;;2.00;1.35;;;21.00;65.90;;;;;;10437291;28;20520;-46
2021/08/03 01:17:12;;;;;;;1.85;1.13;;;21.00;65.70;;;;;;10421085;28;20094;-49
2021/08/03 01:22:36;;;;;;;2.22;1.02;;;20.90;65.50;;;;;;10459812;28;20119;-46
2021/08/03 01:28:01;;;;;;;2.03;1.33;;;21.00;65.60;;;;;;10455121;28;20055;-48
2021/08/03 01:33:03;;;;;;;5.35;1.63;;;20.90;65.50;;;;;;10439284;28;20029;-47
2021/08/03 01:38:04;;;;;;;2.72;1.17;;;20.90;65.40;;;;;;10437328;28;20032;-46
2021/08/03 01:43:06;;;;;;;2.38;1.40;;;20.90;65.40;;;;;;10454467;28;20094;-46
2021/08/03 01:48:09;;;;;;;2.67;1.40;;;20.90;65.30;;;;;;10436676;28;20041;-47
2021/08/03 01:53:10;;;;;;;2.03;1.20;;;20.90;65.40;;;;;;10436578;28;20382;-46
2021/08/03 01:58:14;;;;;;;3.08;1.30;;;20.90;65.30;;;;;;10436524;28;20116;-46
2021/08/03 02:03:15;;;;;;;1.38;1.10;;;20.90;65.30;;;;;;10438271;28;20532;-45
2021/08/03 02:08:20;;;;;;;1.95;1.05;;;20.80;65.30;;;;;;10436476;28;20025;-45
2021/08/03 02:13:24;;;;;;;2.30;1.40;;;20.90;65.40;;;;;;10436399;28;20033;-47
2021/08/03 02:18:25;;;;;;;1.73;1.02;;;20.90;65.40;;;;;;10443124;28;20289;-45
2021/08/03 02:23:25;;;;;;;2.03;1.05;;;20.80;65.50;;;;;;10443882;28;20033;-46
2021/08/03 02:28:26;;;;;;;1.67;0.90;;;20.80;65.40;;;;;;10436660;28;20055;-47
2021/08/03 02:33:33;;;;;;;2.28;1.17;;;20.80;65.40;;;;;;10461153;28;20103;-46
2021/08/03 02:38:43;;;;;;;2.00;0.95;;;20.80;65.20;;;;;;10451420;28;20060;-49
2021/08/03 02:43:46;;;;;;;1.98;1.00;;;20.80;65.10;;;;;;10460785;28;20075;-45
2021/08/03 02:48:59;;;;;;;2.15;1.10;;;20.80;65.10;;;;;;10442941;28;20136;-50
2021/08/03 02:54:18;;;;;;;4.22;1.40;;;20.80;65.10;;;;;;10448697;28;20036;-46
2021/08/03 02:59:22;;;;;;;4.00;1.10;;;20.80;65.00;;;;;;10446663;28;20539;-47
2021/08/03 03:04:47;;;;;;;1.00;0.82;;;20.80;65.00;;;;;;10440242;28;20089;-45
2021/08/03 03:09:51;;;;;;;2.05;1.48;;;20.70;65.10;;;;;;10442952;28;20028;-46
2021/08/03 03:14:55;;;;;;;2.17;1.08;;;20.80;65.10;;;;;;10448555;28;20068;-50
2021/08/03 03:19:58;;;;;;;2.03;1.17;;;20.80;65.10;;;;;;10428700;28;20481;-46
2021/08/03 03:24:59;;;;;;;1.80;0.95;;;20.70;65.10;;;;;;10450098;28;20036;-47
2021/08/03 03:30:01;;;;;;;4.00;1.23;;;20.70;65.00;;;;;;10441270;28;20091;-46
2021/08/03 03:35:02;;;;;;;2.70;1.20;;;20.70;65.00;;;;;;10459055;28;20064;-46
2021/08/03 03:40:04;;;;;;;2.53;1.20;;;20.70;65.00;;;;;;10458889;28;20029;-46
2021/08/03 03:45:06;;;;;;;0.82;0.82;;;20.70;65.00;;;;;;10458531;28;20161;-46
2021/08/03 03:50:16;;;;;;;1.10;0.98;;;20.70;65.00;;;;;;10440372;28;20048;-46
2021/08/03 03:55:21;;;;;;;2.33;1.45;;;20.70;64.90;;;;;;10457206;28;20040;-46
2021/08/03 04:00:22;;;;;;;1.63;1.00;;;20.70;64.90;;;;;;10424154;28;20029;-46
2021/08/03 04:05:24;;;;;;;2.38;1.17;;;20.70;64.90;;;;;;10417455;28;20032;-45
2021/08/03 04:10:34;;;;;;;1.25;0.90;;;20.70;64.80;;;;;;10422358;28;20036;-45
2021/08/03 04:15:35;;;;;;;2.47;1.13;;;20.60;64.80;;;;;;10436679;28;20078;-46
2021/08/03 04:20:35;;;;;;;2.17;1.27;;;20.60;64.80;;;;;;10436065;28;20124;-50
2021/08/03 04:25:36;;;;;;;1.77;1.33;;;20.60;64.70;;;;;;10457196;28;20481;-46
2021/08/03 04:30:37;;;;;;;1.10;0.80;;;20.60;64.70;;;;;;10456646;28;20112;-49
2021/08/03 04:35:38;;;;;;;1.80;0.85;;;20.60;64.70;;;;;;10456989;28;20091;-47
2021/08/03 04:40:38;;;;;;;1.73;1.30;;;20.60;64.60;;;;;;10457080;28;20078;-47
2021/08/03 04:45:39;;;;;;;2.80;1.33;;;20.60;64.60;;;;;;10456946;28;20049;-48
2021/08/03 04:50:40;;;;;;;1.17;0.85;;;20.60;64.60;;;;;;10456379;28;20060;-46
2021/08/03 04:55:41;;;;;;;2.80;0.90;;;20.60;64.60;;;;;;10452321;28;20057;-46
2021/08/03 05:00:42;;;;;;;2.35;1.30;;;20.60;64.50;;;;;;10452223;28;20537;-47
2021/08/03 05:05:42;;;;;;;18.65;1.85;;;20.60;66.60;;;;;;10456376;28;20048;-48
2021/08/03 05:10:43;;;;;;;3.80;1.40;;;20.60;66.40;;;;;;10438478;28;20057;-46
2021/08/03 05:15:43;;;;;;;3.92;1.05;;;20.70;67.20;;;;;;10442825;28;20056;-45
2021/08/03 05:20:44;;;;;;;3.35;1.30;;;20.70;66.90;;;;;;10466318;28;20063;-49
2021/08/03 05:25:45;;;;;;;2.55;1.52;;;20.70;66.80;;;;;;10455741;28;20111;-46
2021/08/03 05:30:47;;;;;;;5.30;1.80;;;20.70;67.00;;;;;;10455272;28;20052;-47
2021/08/03 05:35:48;;;;;;;5.88;1.10;;;20.70;67.30;;;;;;10455395;28;20525;-45
2021/08/03 05:40:48;;;;;;;6.07;1.20;;;20.70;67.30;;;;;;10455690;28;20055;-48
2021/08/03 05:45:49;;;;;;;4.20;1.38;;;20.70;67.30;;;;;;10454034;28;20082;-47
2021/08/03 05:50:50;;;;;;;2.47;0.90;;;20.70;67.40;;;;;;10454147;28;20093;-44
2021/08/03 05:55:50;;;;;;;3.72;1.63;;;20.70;66.90;;;;;;10454755;28;20063;-43
2021/08/03 06:00:51;;;;;;;7.03;1.95;;;20.70;67.30;;;;;;10454934;28;20087;-43
2021/08/03 06:05:52;;;;;;;4.22;1.30;;;20.60;67.10;;;;;;10459075;28;20051;-44
2021/08/03 06:10:53;;;;;;;5.75;1.85;;;20.60;66.70;;;;;;10445222;28;20402;-45
2021/08/03 06:15:59;;;;;;;5.15;1.58;;;20.60;67.20;;;;;;10445454;28;20036;-44
2021/08/03 06:21:00;;;;;;;6.00;1.67;;;20.60;67.10;;;;;;10450465;28;20083;-43
2021/08/03 06:26:01;;;;;;;3.78;1.30;;;20.60;67.20;;;;;;10444575;28;20478;-44
2021/08/03 06:31:03;;;;;;;4.07;1.20;;;20.60;67.30;;;;;;10462222;28;20484;-43
2021/08/03 06:36:04;;;;;;;4.35;1.48;;;20.60;66.90;;;;;;10443189;28;20477;-45
2021/08/03 06:41:22;;;;;;;4.38;1.65;;;20.60;67.20;;;;;;10442726;28;20025;-44
2021/08/03 06:46:25;;;;;;;9.52;1.60;;;20.60;67.60;;;;;;10445066;28;20037;-44
2021/08/03 06:51:34;;;;;;;11.93;1.83;;;20.60;67.40;;;;;;10462667;28;20025;-45
2021/08/03 06:56:38;;;;;;;;;;;20.70;67.40;;;;;;10460017;28;20033;-43
2021/08/03 07:01:59;;;;;;;5.25;1.42;;;20.70;67.70;;;;;;10445093;28;20417;-44
2021/08/03 07:07:02;;;;;;;3.90;1.30;;;20.70;67.70;;;;;;10442981;28;20458;-44
2021/08/03 07:12:04;;;;;;;4.78;1.52;;;20.70;67.70;;;;;;10441609;28;20422;-43
2021/08/03 07:17:09;;;;;;;5.78;1.95;;;20.70;67.60;;;;;;10428814;28;20033;-44
2021/08/03 07:22:13;;;;;;;3.33;1.60;;;20.70;67.90;;;;;;10462073;28;20037;-43
2021/08/03 07:27:14;;;;;;;8.68;1.75;;;20.70;68.00;;;;;;10442751;28;20032;-44
2021/08/03 07:32:16;;;;;;;4.35;1.52;;;20.70;68.20;;;;;;10459133;28;20033;-44
2021/08/03 07:37:17;;;;;;;5.15;1.63;;;20.70;68.20;;;;;;10457603;28;20104;-44
2021/08/03 07:42:18;;;;;;;8.65;1.63;;;20.80;68.40;;;;;;10451039;28;20533;-45
2021/08/03 07:47:19;;;;;;;7.68;1.55;;;20.70;68.50;;;;;;10451251;28;20045;-45
2021/08/03 07:52:20;;;;;;;4.57;1.73;;;20.70;68.40;;;;;;10441537;28;20424;-45
2021/08/03 07:57:22;;;;;;;3.60;1.38;;;20.80;68.50;;;;;;10458816;28;20031;-45
2021/08/03 08:02:24;;;;;;;3.15;1.48;;;20.80;68.50;;;;;;10457546;28;20041;-44
2021/08/03 08:07:26;;;;;;;3.97;1.75;;;20.80;68.30;;;;;;10457404;28;20392;-44
2021/08/03 08:12:26;;;;;;;3.20;1.75;;;20.80;68.10;;;;;;10457519;28;20596;-44
2021/08/03 08:17:27;;;;;;;4.25;2.00;;;20.70;68.30;;;;;;10456279;28;20043;-44
2021/08/03 08:22:28;;;;;;;7.32;2.42;;;20.80;68.00;;;;;;10458129;28;20025;-45
2021/08/03 08:27:28;;;;;;;8.07;2.70;;;20.80;67.90;;;;;;10456014;28;20068;-44
2021/08/03 08:32:29;;;;;;;4.47;2.33;;;20.80;68.50;;;;;;10456700;28;20067;-44
2021/08/03 08:37:30;;;;;;;3.92;2.30;;;20.70;67.90;;;;;;10455791;28;20047;-44
2021/08/03 08:42:33;;;;;;;3.72;2.15;;;20.70;68.00;;;;;;10455656;28;20021;-45
2021/08/03 08:47:34;;;;;;;5.45;3.00;;;20.70;68.00;;;;;;10444450;28;20409;-45
2021/08/03 08:52:38;;;;;;;7.53;2.88;;;20.80;67.40;;;;;;10440164;28;20086;-44
2021/08/03 08:57:39;;;;;;;3.92;2.83;;;20.70;67.60;;;;;;10454935;28;20029;-44
2021/08/03 09:02:41;;;;;;;6.75;2.90;;;20.70;67.70;;;;;;10448435;28;20397;-44
2021/08/03 09:07:56;;;;;;;5.03;2.47;;;20.70;68.30;;;;;;10453383;28;20460;-43
2021/08/03 09:13:04;;;;;;;5.43;2.60;;;20.70;67.80;;;;;;10455964;28;20517;-44
2021/08/03 09:18:34;;;;;;;5.95;3.45;;;20.70;67.90;;;;;;10455556;28;20087;-47
2021/08/03 09:23:45;;;;;;;7.45;3.03;;;20.80;67.90;;;;;;10439277;28;20032;-44
2021/08/03 09:29:11;;;;;;;11.15;4.13;;;20.70;67.80;;;;;;10451183;28;20033;-45
2021/08/03 09:34:15;;;;;;;5.50;3.38;;;20.80;68.50;;;;;;10452609;28;20037;-45
2021/08/03 09:39:39;;;;;;;7.43;3.28;;;20.80;67.90;;;;;;10453646;28;20386;-44
2021/08/03 09:44:55;;;;;;;6.90;3.13;;;20.80;68.60;;;;;;10450939;28;20029;-46
2021/08/03 09:50:03;;;;;;;6.07;4.00;;;20.80;69.10;;;;;;10453959;28;20108;-42
2021/08/03 09:55:18;;;;;;;6.88;4.25;;;20.80;67.70;;;;;;10454639;28;20024;-43
2021/08/03 10:00:34;;;;;;;8.20;4.18;;;20.80;68.40;;;;;;10449054;28;20044;-43
2021/08/03 10:05:35;;;;;;;13.20;5.15;;;20.80;67.70;;;;;;10446315;28;20033;-43
2021/08/03 10:10:37;;;;;;;5.55;4.07;;;20.90;69.30;;;;;;10438310;28;20037;-43
2021/08/03 10:15:38;;;;;;;10.52;6.20;;;20.90;69.10;;;;;;10452296;28;20025;-47
2021/08/03 10:20:45;;;;;;;10.50;5.15;;;20.90;69.20;;;;;;10421477;28;20032;-46
2021/08/03 10:25:46;;;;;;;6.82;4.45;;;20.90;68.80;;;;;;10435792;28;20489;-44
2021/08/03 10:30:47;;;;;;;9.48;5.47;;;20.90;67.80;;;;;;10435799;28;20025;-45
2021/08/03 10:35:49;;;;;;;8.35;4.32;;;20.90;67.90;;;;;;10439295;28;20052;-46
2021/08/03 10:40:53;;;;;;;7.13;5.18;;;20.80;67.90;;;;;;10436209;28;20037;-44
2021/08/03 10:46:06;;;;;;;8.85;5.32;;;20.80;68.10;;;;;;10453621;28;20064;-43
2021/08/03 10:51:13;;;;;;;7.78;4.50;;;20.80;67.80;;;;;;10453555;28;20482;-45
2021/08/03 10:56:14;;;;;;;13.60;4.78;;;20.80;68.20;;;;;;10456193;28;20033;-45
2021/08/03 11:01:46;;;;;;;9.00;5.10;;;20.80;68.40;;;;;;10448119;28;20025;-46
2021/08/03 11:06:46;;;;;;;9.82;5.15;;;20.80;68.90;;;;;;10454819;28;20032;-44
2021/08/03 11:11:47;;;;;;;9.63;4.70;;;20.90;69.70;;;;;;10455365;28;20516;-46
2021/08/03 11:16:48;;;;;;;18.45;7.95;;;20.90;70.00;;;;;;10445296;28;20049;-44
2021/08/03 11:21:50;;;;;;;14.02;8.57;;;20.90;68.00;;;;;;10453117;28;20040;-45
2021/08/03 11:26:54;;;;;;;14.20;9.52;;;20.80;67.50;;;;;;10447253;28;20029;-44
2021/08/03 11:32:00;;;;;;;15.07;9.85;;;20.90;69.50;;;;;;10440197;28;20488;-44
2021/08/03 11:37:09;;;;;;;14.40;10.80;;;20.80;66.90;;;;;;10455822;28;20025;-45
2021/08/03 11:42:12;;;;;;;29.08;11.25;;;20.80;68.60;;;;;;10449655;28;20025;-43
2021/08/03 11:47:14;;;;;;;22.58;12.40;;;20.90;66.80;;;;;;10454339;28;20060;-43
2021/08/03 11:52:25;;;;;;;31.15;13.05;;;20.80;66.70;;;;;;10439112;28;20044;-43
2021/08/03 11:57:32;;;;;;;17.52;11.55;;;20.90;66.90;;;;;;10451966;28;20029;-44
2021/08/03 12:02:35;;;;;;;17.33;11.88;;;20.80;66.30;;;;;;10418359;28;20446;-44
2021/08/03 12:07:39;;;;;;;21.67;12.85;;;20.80;66.10;;;;;;10454534;28;20036;-44
2021/08/03 12:12:47;;;;;;;20.25;12.68;;;20.80;66.20;;;;;;10451176;28;20025;-47
2021/08/03 12:18:01;;;;;;;22.15;13.20;;;20.80;66.30;;;;;;10452368;28;20104;-44
2021/08/03 12:23:28;;;;;;;19.52;12.65;;;20.80;66.40;;;;;;10448516;28;20485;-44
2021/08/03 12:28:37;;;;;;;13.20;11.52;;;20.80;66.50;;;;;;10437834;28;20477;-45
2021/08/03 12:33:38;;;;;;;14.07;11.52;;;20.80;67.10;;;;;;10438826;28;20161;-44
2021/08/03 12:38:40;;;;;;;13.63;11.40;;;20.80;66.70;;;;;;10434476;28;20029;-44
2021/08/03 12:43:41;;;;;;;20.13;12.45;;;20.80;66.80;;;;;;10427733;28;20033;-44
2021/08/03 12:48:50;;;;;;;20.42;11.90;;;20.80;66.80;;;;;;10431231;28;20052;-44
2021/08/03 12:53:51;;;;;;;;;;;20.80;66.90;;;;;;10442147;28;20029;-46
2021/08/03 12:58:52;;;;;;;12.23;10.93;;;20.80;67.30;;;;;;10421516;28;20746;-45
2021/08/03 13:03:53;;;;;;;12.63;10.32;;;20.80;67.70;;;;;;10438090;28;20028;-44
2021/08/03 13:08:54;;;;;;;12.13;10.77;;;20.80;67.70;;;;;;10455611;28;20065;-44
2021/08/03 13:13:55;;;;;;;11.20;9.52;;;20.80;67.70;;;;;;10454749;28;20029;-45
2021/08/03 13:18:56;;;;;;;10.57;9.48;;;20.80;67.80;;;;;;10455372;28;20068;-44
2021/08/03 13:23:57;;;;;;;12.07;8.88;;;20.80;67.60;;;;;;10466183;28;20107;-44
2021/08/03 13:28:59;;;;;;;9.55;8.55;;;20.80;67.80;;;;;;10444879;28;20453;-45
2021/08/03 13:34:00;;;;;;;12.32;9.13;;;20.80;67.50;;;;;;10455157;28;20548;-44
2021/08/03 13:39:01;;;;;;;11.35;8.88;;;20.70;67.60;;;;;;10452863;28;20104;-45
2021/08/03 13:44:02;;;;;;;10.73;8.25;;;20.70;67.60;;;;;;10436898;28;20434;-44
2021/08/03 13:49:03;;;;;;;9.35;8.00;;;20.70;67.70;;;;;;10454196;28;20041;-44
2021/08/03 13:54:04;;;;;;;9.63;8.50;;;20.70;67.80;;;;;;10454603;28;20037;-44
2021/08/03 13:59:05;;;;;;;11.27;9.15;;;20.70;67.70;;;;;;10454048;28;20374;-44
2021/08/03 14:04:06;;;;;;;9.68;8.70;;;20.70;67.80;;;;;;10454610;28;20099;-44
2021/08/03 14:09:06;;;;;;;11.35;9.10;;;20.70;67.80;;;;;;10454128;28;20029;-48
2021/08/03 14:14:07;;;;;;;10.38;8.65;;;20.70;67.70;;;;;;10453971;28;20112;-45
2021/08/03 14:19:09;;;;;;;9.30;8.40;;;20.80;67.80;;;;;;10453731;28;20037;-46
2021/08/03 14:24:10;;;;;;;12.10;8.85;;;20.70;67.70;;;;;;10464857;28;20020;-45
2021/08/03 14:29:11;;;;;;;13.40;9.30;;;20.70;67.70;;;;;;10461516;28;20120;-44
2021/08/03 14:34:12;;;;;;;9.75;8.85;;;20.70;67.70;;;;;;10461152;28;20037;-44
2021/08/03 14:39:13;;;;;;;9.93;9.00;;;20.70;67.80;;;;;;10450101;28;20025;-44
2021/08/03 14:44:13;;;;;;;9.48;8.43;;;20.70;67.80;;;;;;10461663;28;20346;-44
2021/08/03 14:49:14;;;;;;;9.52;8.63;;;20.70;67.80;;;;;;10460809;28;20389;-45
2021/08/03 14:54:17;;;;;;;9.63;8.52;;;20.70;67.90;;;;;;10448833;28;20390;-44
2021/08/03 14:59:18;;;;;;;10.77;8.05;;;20.70;67.80;;;;;;10459678;28;20454;-44
2021/08/03 15:04:19;;;;;;;9.55;8.68;;;20.70;67.90;;;;;;10451244;28;20029;-55
2021/08/03 15:09:20;;;;;;;9.13;8.23;;;20.70;67.90;;;;;;10460457;28;20021;-55
2021/08/03 15:14:21;;;;;;;9.50;8.50;;;20.70;67.90;;;;;;10443036;28;20104;-55
2021/08/03 15:19:22;;;;;;;8.95;8.05;;;20.70;68.50;;;;;;10460467;28;20056;-55
2021/08/03 15:24:22;;;;;;;10.77;8.27;;;20.70;68.00;;;;;;10469467;28;20146;-54
2021/08/03 15:29:23;;;;;;;8.80;7.22;;;20.80;68.10;;;;;;10442084;28;20120;-55
2021/08/03 15:34:24;;;;;;;8.02;7.22;;;20.70;68.00;;;;;;10456420;28;20056;-53
2021/08/03 15:39:25;;;;;;;9.77;8.70;;;20.70;68.00;;;;;;10458334;28;20419;-53
2021/08/03 15:44:26;;;;;;;11.13;7.93;;;20.70;68.10;;;;;;10442161;28;20098;-55
2021/08/03 15:49:27;;;;;;;10.73;8.75;;;20.70;67.90;;;;;;10441497;28;20056;-53
2021/08/03 15:54:28;;;;;;;11.50;7.70;;;20.70;68.10;;;;;;10441866;28;20029;-53
2021/08/03 15:59:29;;;;;;;9.90;7.45;;;20.80;68.70;;;;;;10459372;28;20033;-55
2021/08/03 16:04:29;;;;;;;15.10;8.32;;;20.80;68.40;;;;;;10458948;28;20040;-56
2021/08/03 16:09:30;;;;;;;9.80;7.13;;;20.90;68.70;;;;;;10458507;28;20040;-45
2021/08/03 16:14:32;;;;;;;13.02;7.45;;;20.90;68.80;;;;;;10444453;28;20497;-44
2021/08/03 16:19:36;;;;;;;9.55;7.38;;;20.90;69.30;;;;;;10458535;28;20380;-45
2021/08/03 16:24:36;;;;;;;14.05;6.95;;;21.00;69.40;;;;;;10439778;28;20128;-46
2021/08/03 16:29:38;;;;;;;10.65;7.43;;;21.00;69.50;;;;;;10454788;28;20112;-45
2021/08/03 16:34:48;;;;;;;11.57;7.38;;;21.00;70.00;;;;;;10457679;28;20032;-45
2021/08/03 16:39:50;;;;;;;13.85;6.85;;;21.00;69.70;;;;;;10456450;28;20120;-44
2021/08/03 16:44:54;;;;;;;16.02;8.00;;;20.90;69.50;;;;;;10456979;28;20039;-45
2021/08/03 16:49:55;;;;;;;12.18;6.30;;;20.90;69.60;;;;;;10456113;28;20069;-45
2021/08/03 16:54:57;;;;;;;15.88;7.38;;;20.90;69.80;;;;;;10432868;28;20026;-47
2021/08/03 16:59:58;;;;;;;21.85;6.70;;;20.90;70.10;;;;;;10436806;28;20063;-46
2021/08/03 17:05:07;;;;;;;9.43;7.57;;;20.90;69.80;;;;;;10456462;28;20119;-47
2021/08/03 17:10:14;;;;;;;15.80;7.32;;;20.90;70.40;;;;;;10456515;28;20033;-46
2021/08/03 17:15:15;;;;;;;13.25;7.13;;;20.90;70.30;;;;;;10456263;28;20028;-46
2021/08/03 17:20:16;;;;;;;11.27;7.25;;;20.90;70.20;;;;;;10445887;28;20472;-46
2021/08/03 17:25:18;;;;;;;11.18;7.60;;;20.90;69.90;;;;;;10458056;28;20528;-47
2021/08/03 17:30:21;;;;;;;10.93;6.65;;;20.80;69.80;;;;;;10455662;28;20029;-46
2021/08/03 17:35:22;;;;;;;14.13;7.28;;;20.80;69.70;;;;;;10437334;28;20039;-46
2021/08/03 17:40:26;;;;;;;8.98;5.95;;;20.80;69.30;;;;;;10444868;28;20029;-46
2021/08/03 17:45:26;;;;;;;9.50;6.40;;;20.80;69.30;;;;;;10444404;28;20469;-47
2021/08/03 17:50:31;;;;;;;11.60;5.97;;;20.80;69.30;;;;;;10448067;28;20116;-46
2021/08/03 17:55:33;;;;;;;10.38;6.05;;;20.80;69.50;;;;;;10448812;28;20104;-46
2021/08/03 18:00:33;;;;;;;8.27;5.15;;;20.80;69.40;;;;;;10439014;28;20489;-51
2021/08/03 18:05:35;;;;;;;9.60;5.43;;;20.80;69.50;;;;;;10436143;28;20037;-47
2021/08/03 18:10:36;;;;;;;7.78;4.95;;;20.80;69.50;;;;;;10437728;28;20158;-50
2021/08/03 18:15:37;;;;;;;6.57;5.20;;;20.80;69.50;;;;;;10444528;28;20543;-47
2021/08/03 18:20:38;;;;;;;6.47;5.25;;;20.80;69.50;;;;;;10450283;28;20025;-49
2021/08/03 18:25:50;;;;;;;6.05;5.22;;;20.80;69.60;;;;;;10462053;28;20113;-49
2021/08/03 18:31:06;;;;;;;8.70;5.07;;;20.80;69.50;;;;;;10459545;28;20052;-47
2021/08/03 18:36:08;;;;;;;6.45;5.00;;;20.80;69.50;;;;;;10458138;28;20033;-47
2021/08/03 18:41:11;;;;;;;5.38;4.72;;;20.80;69.60;;;;;;10438503;28;20056;-47
2021/08/03 18:46:13;;;;;;;8.65;5.32;;;20.80;69.50;;;;;;10437403;28;20048;-47
2021/08/03 18:51:13;;;;;;;6.13;4.90;;;20.80;69.50;;;;;;10436041;28;20025;-45
2021/08/03 18:56:15;;;;;;;6.47;5.00;;;20.80;69.50;;;;;;10451282;28;20376;-46
2021/08/03 19:01:17;;;;;;;7.60;5.88;;;20.80;69.50;;;;;;10427175;28;20034;-47
2021/08/03 19:06:47;;;;;;;5.03;4.07;;;20.80;69.60;;;;;;10454988;28;20533;-46
2021/08/03 19:11:51;;;;;;;6.00;4.85;;;20.80;69.50;;;;;;10451750;28;20116;-47
2021/08/03 19:16:55;;;;;;;6.60;5.22;;;20.80;69.70;;;;;;10442112;28;20503;-47
2021/08/03 19:22:03;;;;;;;8.27;5.05;;;20.80;69.70;;;;;;10451432;28;20029;-47
2021/08/03 19:27:04;;;;;;;7.80;5.20;;;20.80;69.90;;;;;;10451629;28;20060;-47
2021/08/03 19:32:09;;;;;;;8.93;5.00;;;20.80;69.80;;;;;;10441859;28;20061;-51
2021/08/03 19:37:11;;;;;;;5.85;4.13;;;20.80;69.80;;;;;;10447197;28;20025;-47
2021/08/03 19:42:12;;;;;;;6.97;4.78;;;20.80;69.70;;;;;;10443636;28;20044;-46
2021/08/03 19:47:22;;;;;;;5.03;4.53;;;20.80;69.60;;;;;;10458718;28;20049;-46
2021/08/03 19:52:26;;;;;;;8.90;5.28;;;20.70;69.50;;;;;;10458303;28;20036;-46
2021/08/03 19:57:32;;;;;;;6.10;4.22;;;20.70;69.50;;;;;;10455845;28;20024;-45
2021/08/03 20:02:34;;;;;;;5.72;4.50;;;20.80;69.60;;;;;;10436317;28;20041;-47
2021/08/03 20:07:37;;;;;;;5.57;4.88;;;20.70;69.50;;;;;;10441060;28;20029;-46
2021/08/03 20:12:39;;;;;;;6.65;5.07;;;20.70;69.50;;;;;;10457225;28;20033;-46
2021/08/03 20:17:41;;;;;;;5.70;4.68;;;20.70;69.40;;;;;;10456361;28;20112;-46
2021/08/03 20:22:43;;;;;;;4.97;4.13;;;20.70;69.40;;;;;;10469262;28;20102;-47
2021/08/03 20:27:48;;;;;;;5.00;4.50;;;20.70;69.50;;;;;;10458093;28;20335;-47
2021/08/03 20:33:23;;;;;;;5.05;4.55;;;20.70;69.50;;;;;;10457256;28;20055;-46
2021/08/03 20:38:26;;;;;;;4.57;4.03;;;20.70;69.30;;;;;;10439873;28;20027;-47
2021/08/03 20:43:28;;;;;;;8.07;4.38;;;20.70;69.40;;;;;;10457544;28;20076;-46
2021/08/03 20:48:31;;;;;;;4.93;4.03;;;20.70;69.40;;;;;;10457400;28;20041;-46
2021/08/03 20:53:35;;;;;;;4.78;4.03;;;20.70;69.40;;;;;;10457197;28;20456;-47
2021/08/03 20:58:39;;;;;;;5.05;3.78;;;20.70;69.40;;;;;;10457212;28;20025;-46
2021/08/03 21:03:49;;;;;;;4.38;3.97;;;20.60;69.30;;;;;;10439000;28;20029;-47
2021/08/03 21:08:57;;;;;;;5.05;4.20;;;20.70;69.30;;;;;;10456856;28;20021;-46
2021/08/03 21:14:08;;;;;;;4.32;3.53;;;20.70;69.40;;;;;;10438910;28;20087;-46
2021/08/03 21:19:09;;;;;;;4.35;3.95;;;20.70;69.50;;;;;;10456053;28;20082;-46
2021/08/03 21:24:10;;;;;;;5.63;4.07;;;20.70;69.50;;;;;;10466750;28;20035;-46
2021/08/03 21:29:10;;;;;;;4.50;3.95;;;20.60;69.40;;;;;;10438247;28;20029;-45
2021/08/03 21:34:12;;;;;;;7.05;3.97;;;20.60;69.30;;;;;;10455161;28;20460;-46
2021/08/03 21:39:13;;;;;;;4.38;3.80;;;20.60;69.30;;;;;;10421443;28;20029;-47
2021/08/03 21:44:14;;;;;;;4.43;3.72;;;20.60;69.30;;;;;;10455316;28;20381;-46
2021/08/03 21:49:14;;;;;;;4.90;3.78;;;20.70;69.20;;;;;;10455423;28;20051;-45
2021/08/03 21:54:15;;;;;;;5.47;4.28;;;20.60;69.10;;;;;;10454873;28;20065;-47
2021/08/03 21:59:16;;;;;;;4.20;3.60;;;20.60;69.10;;;;;;10455126;28;20396;-46
2021/08/03 22:04:16;;;;;;;4.07;3.50;;;20.60;69.10;;;;;;10454890;28;20029;-47
2021/08/03 22:09:17;;;;;;;4.43;3.80;;;20.60;69.10;;;;;;10431960;28;20063;-47
2021/08/03 22:14:18;;;;;;;4.53;3.67;;;20.60;69.00;;;;;;10454810;28;20504;-47
2021/08/03 22:19:18;;;;;;;4.15;3.75;;;20.60;69.60;;;;;;10436947;28;20107;-46
2021/08/03 22:24:19;;;;;;;3.80;3.35;;;20.60;68.90;;;;;;10466336;28;20120;-47
2021/08/03 22:29:20;;;;;;;4.20;3.50;;;20.60;68.90;;;;;;10454534;28;20104;-46
2021/08/03 22:34:20;;;;;;;3.83;3.42;;;20.60;68.90;;;;;;10454397;28;20035;-46
2021/08/03 22:39:21;;;;;;;4.35;3.80;;;20.60;69.40;;;;;;10454526;28;20036;-47
2021/08/03 22:44:22;;;;;;;4.55;3.42;;;20.60;68.70;;;;;;10443238;28;20036;-46
2021/08/03 22:49:22;;;;;;;4.13;3.67;;;20.50;68.60;;;;;;10460897;28;20056;-46
2021/08/03 22:54:23;;;;;;;4.40;3.60;;;20.50;68.60;;;;;;10461694;28;20056;-47
2021/08/03 22:59:24;;;;;;;3.88;3.47;;;20.50;68.50;;;;;;10461698;28;20029;-48
2021/08/03 23:04:24;;;;;;;3.55;3.00;;;20.50;68.40;;;;;;10461554;28;20158;-51
2021/08/03 23:09:25;;;;;;;3.92;3.42;;;20.50;68.40;;;;;;10461124;28;20105;-48
2021/08/03 23:14:26;;;;;;;4.22;3.60;;;20.50;68.40;;;;;;10461032;28;20397;-47
2021/08/03 23:19:26;;;;;;;4.53;3.30;;;20.50;68.40;;;;;;10461149;28;20476;-46
2021/08/03 23:24:27;;;;;;;3.95;3.55;;;20.50;68.30;;;;;;10463272;28;20048;-46
2021/08/03 23:29:28;;;;;;;4.15;3.40;;;20.50;68.30;;;;;;10460006;28;20029;-46
2021/08/03 23:34:28;;;;;;;5.05;3.42;;;20.50;68.20;;;;;;10442790;28;20048;-47
2021/08/03 23:39:29;;;;;;;3.45;3.15;;;20.50;68.10;;;;;;10459906;28;20108;-46
2021/08/03 23:44:30;;;;;;;5.03;3.80;;;20.50;68.10;;;;;;10459846;28;20029;-49
2021/08/03 23:49:31;;;;;;;4.20;3.40;;;20.40;68.00;;;;;;10459479;28;20041;-46
2021/08/03 23:54:31;;;;;;;4.07;3.22;;;20.50;68.00;;;;;;10441270;28;20112;-46
2021/08/03 23:59:32;;;;;;;3.85;3.22;;;20.40;67.90;;;;;;10442558;28;20035;-46
